Terminal Aerodrome Forecast
Issued by NWS

Home | Current Version | Previous Version | Graphics & Text | Print | Product List | Glossary On
Versions: 1 2 3 4 5 6 7 8 9 10 11 12 13 14 15 16 17 18 19 20 21 22 23
000
FTUS41 KCLE 160600 AAA
TAFFDY
TAF AMD
KFDY 160647Z 1607/1706 28004KT 1SM BR OVC003
      TEMPO 1607/1610 1/2SM FG VV001
     FM161000 29004KT 3/4SM BR OVC003
      TEMPO 1610/1614 1/4SM FG VV001
     FM161400 31004KT 3SM BR OVC006
      TEMPO 1614/1615 1SM BR OVC003
     FM161500 34005KT 5SM BR SCT003 OVC008
     FM161600 34006KT 6SM BR SCT012 BKN025
     FM161700 33006KT P6SM SCT035
     FM170200 26003KT P6SM SKC=

USA.gov is the U.S. government's official web portal to all federal, state and local government web resources and services.